CYAZ/YAZ METAR and TAF weather

Enter ICAO airport designator
Station Type Date Time Source
CYAZ METAR 2020/09/23 00:00 UTC NOAA

CYAZ 230000Z 12011G17KT 15SM BKN011 OVC017 15/14 A2992 RMK CU6SC2 INTMT -SHRA SLP135 DENSITY ALT 100FT


Station Type Date Time Source
CYAZ Decoded METAR 2020/09/23 00:00 UTC NOAA

Tofino Airport, Canada (CYAZ) 49-05N 125-46W
Sep 22, 2020 - 08:00 PM EDT / 2020.09.23 0000 UTC
Wind: from the ESE (120 degrees) at 13 MPH (11 KT) gusting to 20 MPH (17 KT):0
Visibility: 15 mile(s):0
Sky conditions: overcast
Temperature: 59 F (15 C)
Dew Point: 57 F (14 C)
Relative Humidity: 93%
Pressure (altimeter): 29.92 in. Hg (1013 hPa)
ob: CYAZ 230000Z 12011G17KT 15SM BKN011 OVC017 15/14 A2992 RMK CU6SC2 INTMT -SHRA SLP135 DENSITY ALT 100FT
cycle: 0

Station Type Date Time Source
CYAZ TAF 2020/09/22 21:30 UTC NOAA

TAF
AMD TAF
AMD CYAZ 222128Z 2221/2301 13015G25KT 6SM -RA SCT008 BKN015 OVC025
TEMPO 2221/2301 1SM -SHRA BR SCT005 OVC008
RMK NXT FCST WILL BE ISSUED AT 231445Z

Example: see airport list